createdAt,value
2023-03-24T00:02:05.207Z,7.17
2023-03-24T00:04:34.143Z,6.80
2023-03-24T00:07:03.416Z,5.83
2023-03-24T00:09:32.467Z,6.20
2023-03-24T00:12:00.906Z,6.47
2023-03-24T00:14:30.788Z,7.60
2023-03-24T00:17:00.521Z,6.93
2023-03-24T00:19:29.101Z,6.83
2023-03-24T00:22:00.643Z,6.60
2023-03-24T00:24:29.019Z,6.23
2023-03-24T00:26:57.867Z,7.20
2023-03-24T00:29:26.917Z,6.57
2023-03-24T00:31:55.728Z,6.60
2023-03-24T00:34:26.183Z,6.93
2023-03-24T00:36:54.533Z,6.30
2023-03-24T00:39:22.945Z,6.70
2023-03-24T00:41:51.325Z,7.17
2023-03-24T00:44:19.643Z,6.30
2023-03-24T00:46:57.147Z,7.60
2023-03-24T00:52:27.435Z,7.17
2023-03-24T00:54:58.874Z,7.57
2023-03-24T00:57:29.959Z,7.13
2023-03-24T00:59:59.008Z,6.77
2023-03-24T01:02:31.459Z,6.93
2023-03-24T01:05:02.410Z,7.50
2023-03-24T01:07:32.244Z,7.83
2023-03-24T01:10:00.770Z,7.17
2023-03-24T01:12:32.413Z,7.27
2023-03-24T01:15:02.958Z,7.00
2023-03-24T01:17:31.191Z,7.10
2023-03-24T01:20:00.237Z,7.33
2023-03-24T01:22:30.863Z,7.53
2023-03-24T01:25:03.188Z,6.97
2023-03-24T01:27:31.904Z,7.83
2023-03-24T01:30:01.859Z,7.40
2023-03-24T01:32:33.553Z,7.43
2023-03-24T01:35:01.826Z,6.80
2023-03-24T01:37:30.135Z,8.10
2023-03-24T01:39:58.756Z,8.53
2023-03-24T01:42:29.865Z,8.27
2023-03-24T01:45:02.500Z,8.87
2023-03-24T01:47:30.722Z,8.80
2023-03-24T01:50:02.934Z,8.67
2023-03-24T01:52:34.512Z,9.00
2023-03-24T01:55:08.075Z,8.97
2023-03-24T01:57:41.735Z,8.70
2023-03-24T02:00:12.724Z,8.63
2023-03-24T02:02:44.196Z,7.93
2023-03-24T02:05:14.722Z,8.83
2023-03-24T02:07:52.982Z,8.17
2023-03-24T02:10:24.717Z,8.53
2023-03-24T02:12:54.632Z,9.00
2023-03-24T02:15:25.455Z,9.23
2023-03-24T02:18:05.014Z,8.60
2023-03-24T02:21:02.482Z,8.50
2023-03-24T02:23:58.810Z,8.40
2023-03-24T02:26:57.318Z,8.60
2023-03-24T02:29:59.837Z,8.17
2023-03-24T02:32:59.726Z,8.80
2023-03-24T02:36:03.750Z,8.03
2023-03-24T02:39:13.879Z,8.77
2023-03-24T02:41:51.639Z,8.57
2023-03-24T02:44:30.459Z,8.20
2023-03-24T02:47:05.411Z,7.83
2023-03-24T02:49:43.004Z,7.23
2023-03-24T02:52:20.860Z,8.10
2023-03-24T02:54:54.558Z,7.43
2023-03-24T02:57:31.811Z,7.67
2023-03-24T03:00:04.618Z,7.73
2023-03-24T03:02:37.047Z,7.43
2023-03-24T03:05:08.546Z,7.77
2023-03-24T03:07:39.079Z,7.33
2023-03-24T03:10:16.531Z,7.00
2023-03-24T03:12:50.675Z,7.97
2023-03-24T03:15:24.616Z,6.80
2023-03-24T03:17:59.394Z,7.67
2023-03-24T03:20:34.961Z,7.33
2023-03-24T03:23:08.487Z,10.00
2023-03-24T03:25:42.328Z,6.90
2023-03-24T03:28:18.132Z,6.13
2023-03-24T03:30:52.305Z,6.80
2023-03-24T03:33:27.602Z,6.67
2023-03-24T03:36:00.062Z,6.77
2023-03-24T03:38:37.384Z,7.07
2023-03-24T03:41:09.019Z,6.03
2023-03-24T03:43:41.236Z,6.30
2023-03-24T03:46:09.708Z,7.20
2023-03-24T03:48:39.189Z,6.13
2023-03-24T03:51:13.725Z,5.77
2023-03-24T03:53:49.128Z,6.40
2023-03-24T03:56:20.803Z,6.40
2023-03-24T03:58:51.093Z,5.60
2023-03-24T04:01:22.181Z,5.97
2023-03-24T04:04:20.443Z,5.37
2023-03-24T04:06:58.843Z,5.80
2023-03-24T04:09:38.796Z,5.77
2023-03-24T04:12:25.778Z,6.43
2023-03-24T04:15:17.341Z,5.87
2023-03-24T04:18:01.069Z,5.70
2023-03-24T04:20:38.638Z,5.80
2023-03-24T04:23:18.582Z,5.40
2023-03-24T04:25:56.920Z,5.50
2023-03-24T04:28:31.290Z,5.33
2023-03-24T04:31:07.440Z,5.47
2023-03-24T04:33:42.737Z,5.80
2023-03-24T04:36:19.409Z,5.33
2023-03-24T04:38:53.422Z,5.27
2023-03-24T04:41:25.795Z,5.37
2023-03-24T04:43:58.495Z,5.77
2023-03-24T04:46:28.736Z,5.27
2023-03-24T04:48:57.054Z,5.63
2023-03-24T04:51:30.192Z,5.20
2023-03-24T04:53:58.702Z,5.37
2023-03-24T04:56:38.126Z,5.30
2023-03-24T04:59:08.362Z,5.70
2023-03-24T05:01:39.352Z,4.87
2023-03-24T05:04:08.482Z,5.90
2023-03-24T05:06:36.839Z,5.87
2023-03-24T05:09:05.741Z,5.37
2023-03-24T05:11:34.567Z,5.57
2023-03-24T05:14:02.885Z,5.23
2023-03-24T05:16:31.594Z,5.57
2023-03-24T05:19:01.959Z,5.63
2023-03-24T05:21:31.872Z,5.03
2023-03-24T05:24:02.132Z,6.00
2023-03-24T05:26:33.027Z,5.87
2023-03-24T05:29:01.415Z,6.03
2023-03-24T05:31:29.828Z,6.20
2023-03-24T05:33:58.393Z,6.43
2023-03-24T05:36:28.886Z,6.37
2023-03-24T05:38:57.152Z,6.27
2023-03-24T05:41:25.645Z,7.00
2023-03-24T05:43:53.939Z,6.87
2023-03-24T05:46:24.523Z,7.23
2023-03-24T05:48:54.081Z,7.10
2023-03-24T05:51:22.273Z,7.50
2023-03-24T05:53:52.546Z,8.77
2023-03-24T05:56:20.795Z,9.73
2023-03-24T05:58:49.105Z,9.23
2023-03-24T06:01:18.507Z,10.93
2023-03-24T06:03:47.063Z,10.43
2023-03-24T06:06:16.963Z,10.93
2023-03-24T06:08:46.348Z,11.10
2023-03-24T06:11:17.085Z,10.53
2023-03-24T06:13:45.409Z,11.13
2023-03-24T06:16:13.997Z,9.40
2023-03-24T06:18:42.868Z,10.43
2023-03-24T06:21:11.061Z,9.07
2023-03-24T06:23:39.517Z,9.73
2023-03-24T06:26:11.717Z,9.90
2023-03-24T06:28:42.383Z,8.87
2023-03-24T06:31:15.260Z,8.10
2023-03-24T06:33:43.869Z,6.93
2023-03-24T06:36:13.909Z,7.63
2023-03-24T06:38:42.913Z,7.23
2023-03-24T06:41:11.600Z,5.97
2023-03-24T06:43:41.362Z,7.10
2023-03-24T06:46:10.351Z,6.77
2023-03-24T06:48:39.848Z,6.50
2023-03-24T06:51:09.285Z,6.03
2023-03-24T06:53:37.939Z,6.73
2023-03-24T06:56:06.817Z,6.17
2023-03-24T06:58:35.902Z,5.90
2023-03-24T07:01:05.649Z,5.23
2023-03-24T07:03:34.242Z,5.20
2023-03-24T07:06:02.616Z,5.27
2023-03-24T07:08:38.164Z,5.13
2023-03-24T07:11:08.966Z,4.23
2023-03-24T07:13:37.740Z,4.40
2023-03-24T07:16:08.606Z,4.33
2023-03-24T07:18:37.185Z,4.73
2023-03-24T07:21:05.906Z,4.57
2023-03-24T07:23:34.356Z,4.80
2023-03-24T07:26:02.705Z,4.30
2023-03-24T07:28:31.100Z,4.50
2023-03-24T07:30:59.774Z,4.50
2023-03-24T07:33:30.053Z,4.50
2023-03-24T07:35:59.778Z,4.53
2023-03-24T07:38:31.710Z,4.87
2023-03-24T07:41:00.485Z,4.30
2023-03-24T07:43:28.821Z,4.30
2023-03-24T07:45:57.243Z,3.90
2023-03-24T07:48:25.646Z,4.10
2023-03-24T07:50:55.586Z,4.53
2023-03-24T07:53:24.157Z,4.50
2023-03-24T07:55:52.839Z,4.27
2023-03-24T07:58:21.569Z,4.73
2023-03-24T08:00:50.123Z,4.47
2023-03-24T08:03:18.819Z,4.13
2023-03-24T08:05:47.471Z,3.80
2023-03-24T08:08:17.219Z,3.30
2023-03-24T08:10:46.838Z,3.70
2023-03-24T08:13:15.176Z,3.30
2023-03-24T08:15:44.218Z,2.70
2023-03-24T08:18:12.773Z,3.00
2023-03-24T08:20:41.066Z,2.80
2023-03-24T08:23:09.303Z,2.47
2023-03-24T08:25:39.034Z,2.50
2023-03-24T08:28:07.539Z,2.70
2023-03-24T08:30:36.465Z,2.57
2023-03-24T08:33:06.146Z,2.10
2023-03-24T08:35:39.169Z,2.00
2023-03-24T08:38:08.040Z,1.83
2023-03-24T08:40:38.849Z,1.50
2023-03-24T08:43:09.912Z,1.17
2023-03-24T08:45:38.393Z,1.00
2023-03-24T08:48:08.856Z,0.90
2023-03-24T08:50:39.571Z,0.90
2023-03-24T08:53:08.213Z,0.90
2023-03-24T08:55:37.953Z,0.70
2023-03-24T08:58:10.274Z,0.73
2023-03-24T09:00:38.501Z,0.80
2023-03-24T09:03:06.951Z,1.00
2023-03-24T09:05:54.611Z,0.90
2023-03-24T09:08:22.871Z,0.80
2023-03-24T09:10:51.773Z,0.90
2023-03-24T09:13:22.273Z,0.77
2023-03-24T09:15:53.054Z,0.50
2023-03-24T09:18:22.939Z,0.83
2023-03-24T09:20:52.418Z,0.90
2023-03-24T09:23:21.361Z,1.27
2023-03-24T09:25:50.748Z,1.40
2023-03-24T09:28:21.245Z,2.43
2023-03-24T09:30:50.417Z,2.97
2023-03-24T09:33:19.471Z,3.00
2023-03-24T09:35:47.973Z,3.17
2023-03-24T09:38:16.579Z,3.80
2023-03-24T09:40:45.038Z,3.73
2023-03-24T09:43:24.815Z,3.50
2023-03-24T09:45:55.925Z,3.63
2023-03-24T09:48:33.156Z,3.10
2023-03-24T09:51:06.063Z,2.60
2023-03-24T09:53:41.910Z,2.13
2023-03-24T09:56:14.760Z,1.80
2023-03-24T09:58:47.539Z,1.63
2023-03-24T10:01:16.932Z,1.60
2023-03-24T10:03:46.809Z,1.37
2023-03-24T10:06:23.317Z,1.53
2023-03-24T10:09:00.385Z,2.50
2023-03-24T10:11:37.590Z,3.03
2023-03-24T10:14:19.957Z,4.00
2023-03-24T10:16:54.267Z,4.20
2023-03-24T10:19:30.939Z,5.30
2023-03-24T10:22:05.726Z,5.20
2023-03-24T10:24:40.151Z,6.03
2023-03-24T10:27:16.176Z,6.17
2023-03-24T10:29:47.532Z,5.87
2023-03-24T10:32:19.872Z,6.60
2023-03-24T10:34:55.724Z,6.67
2023-03-24T10:37:24.359Z,6.20
2023-03-24T10:39:56.562Z,6.30
2023-03-24T10:42:27.810Z,6.30
2023-03-24T10:44:58.027Z,6.80
2023-03-24T10:47:30.145Z,5.93
2023-03-24T10:50:14.208Z,7.00
2023-03-24T10:52:49.033Z,6.60
2023-03-24T10:55:19.928Z,6.43
2023-03-24T10:57:51.212Z,7.00
2023-03-24T11:00:27.026Z,6.97
2023-03-24T11:02:59.145Z,7.07
2023-03-24T11:05:33.649Z,6.40
2023-03-24T11:08:16.188Z,6.83
2023-03-24T11:10:44.773Z,7.10
2023-03-24T11:13:19.955Z,6.30
2023-03-24T11:15:59.018Z,5.77
2023-03-24T11:18:27.282Z,5.87
2023-03-24T11:21:00.913Z,4.37
2023-03-24T11:23:31.872Z,4.40
2023-03-24T11:26:10.821Z,3.70
2023-03-24T11:28:42.631Z,3.43
2023-03-24T11:31:18.518Z,3.33
2023-03-24T11:33:51.165Z,3.07
2023-03-24T11:36:47.837Z,2.50
2023-03-24T11:39:20.331Z,2.97
2023-03-24T11:42:03.187Z,3.30
2023-03-24T11:44:34.618Z,2.80
2023-03-24T11:47:11.252Z,2.60
2023-03-24T11:49:44.645Z,2.47
2023-03-24T11:52:21.902Z,2.50
2023-03-24T11:54:50.338Z,2.10
2023-03-24T11:57:29.409Z,2.30
2023-03-24T12:00:02.409Z,2.50
2023-03-24T12:02:48.949Z,2.33
2023-03-24T12:05:27.845Z,2.43
2023-03-24T12:08:25.024Z,2.37
2023-03-24T12:11:05.327Z,2.87
2023-03-24T12:13:37.871Z,3.27
2023-03-24T12:16:27.013Z,2.50
2023-03-24T12:19:35.553Z,2.90
2023-03-24T12:22:15.406Z,3.10
2023-03-24T12:24:58.422Z,2.60
2023-03-24T12:27:37.558Z,2.40
2023-03-24T12:30:15.758Z,2.50
2023-03-24T12:32:58.008Z,2.33
2023-03-24T12:35:49.353Z,1.55
2023-03-24T12:38:39.820Z,1.60
2023-03-24T12:41:46.783Z,1.80
2023-03-24T12:44:44.470Z,2.57
2023-03-24T12:47:35.480Z,2.70
2023-03-24T12:50:25.630Z,3.23
2023-03-24T12:53:14.357Z,3.77
2023-03-24T12:55:47.021Z,2.90
2023-03-24T12:58:20.790Z,2.67
2023-03-24T13:00:59.861Z,1.77
2023-03-24T13:03:38.861Z,1.97
2023-03-24T13:06:17.657Z,0.97
2023-03-24T13:08:56.812Z,1.10
2023-03-24T13:11:36.249Z,1.00
2023-03-24T13:14:15.532Z,1.10
2023-03-24T13:16:47.685Z,0.90
2023-03-24T13:19:21.655Z,1.00
2023-03-24T13:21:52.808Z,1.00
2023-03-24T13:24:24.099Z,1.57
2023-03-24T13:27:03.085Z,1.47
2023-03-24T13:29:57.123Z,1.53
2023-03-24T13:32:38.324Z,1.80
2023-03-24T13:35:19.773Z,1.43
2023-03-24T13:37:52.959Z,1.47
2023-03-24T13:40:25.798Z,1.63
2023-03-24T13:42:57.149Z,1.40
2023-03-24T13:45:44.807Z,4.30
2023-03-24T13:48:31.247Z,1.30
2023-03-24T13:51:02.489Z,1.40
2023-03-24T13:53:45.087Z,1.40
2023-03-24T13:56:25.603Z,1.30
2023-03-24T13:59:24.716Z,1.70
2023-03-24T14:02:13.444Z,1.40
2023-03-24T14:04:49.021Z,1.50
2023-03-24T14:07:43.936Z,1.57
2023-03-24T14:10:46.813Z,1.70
2023-03-24T14:13:47.196Z,1.73
2023-03-24T14:16:45.530Z,1.60
2023-03-24T14:19:25.624Z,1.43
2023-03-24T14:21:58.302Z,1.60
2023-03-24T14:24:57.465Z,1.60
2023-03-24T14:27:50.113Z,1.87
2023-03-24T14:30:50.085Z,2.47
2023-03-24T14:33:39.170Z,2.00
2023-03-24T14:36:22.211Z,2.50
2023-03-24T14:39:45.144Z,2.40
2023-03-24T14:43:02.477Z,2.60
2023-03-24T14:46:02.672Z,2.40
2023-03-24T14:49:21.034Z,2.60
2023-03-24T14:52:20.379Z,2.77
2023-03-24T14:55:10.006Z,2.90
2023-03-24T14:57:58.198Z,2.47
2023-03-24T15:01:07.759Z,3.20
2023-03-24T15:03:54.395Z,3.27
2023-03-24T15:06:36.222Z,3.63
2023-03-24T15:09:20.293Z,3.50
2023-03-24T15:12:15.392Z,3.63
2023-03-24T15:14:55.570Z,4.10
2023-03-24T15:17:50.124Z,4.17
2023-03-24T15:20:41.169Z,4.27
2023-03-24T15:23:24.970Z,4.03
2023-03-24T15:26:18.462Z,3.87
2023-03-24T15:29:10.067Z,3.67
2023-03-24T15:31:50.752Z,4.80
2023-03-24T15:34:53.752Z,4.73
2023-03-24T15:37:54.039Z,4.27
2023-03-24T15:41:04.975Z,4.70
2023-03-24T15:43:57.189Z,4.97
2023-03-24T15:46:45.684Z,4.87
2023-03-24T15:49:33.963Z,4.23
2023-03-24T15:52:21.274Z,5.10
2023-03-24T15:55:23.237Z,4.83
2023-03-24T15:58:08.225Z,5.10
2023-03-24T16:00:56.499Z,5.00
2023-03-24T16:03:43.649Z,4.77
2023-03-24T16:06:34.280Z,4.70
2023-03-24T16:09:10.894Z,4.70
2023-03-24T16:11:48.174Z,4.77
2023-03-24T16:14:33.489Z,5.10
2023-03-24T16:17:04.152Z,4.57
2023-03-24T16:19:32.917Z,5.10
2023-03-24T16:22:01.467Z,4.50
2023-03-24T16:24:31.076Z,4.63
2023-03-24T16:26:59.468Z,5.30
2023-03-24T16:29:30.529Z,4.10
2023-03-24T16:31:59.061Z,5.37
2023-03-24T16:34:27.394Z,5.50
2023-03-24T16:36:56.767Z,5.67
2023-03-24T16:39:27.405Z,5.43
2023-03-24T16:41:57.807Z,4.77
2023-03-24T16:44:26.688Z,5.80
2023-03-24T16:46:56.635Z,5.27
2023-03-24T16:49:26.670Z,6.10
2023-03-24T16:51:55.068Z,5.60
2023-03-24T16:54:23.928Z,5.53
2023-03-24T16:56:52.420Z,4.70
2023-03-24T16:59:22.712Z,5.57
2023-03-24T17:01:54.296Z,5.83
2023-03-24T17:04:29.222Z,4.93
2023-03-24T17:06:58.040Z,5.87
2023-03-24T17:09:28.710Z,6.13
2023-03-24T17:11:58.920Z,5.80
2023-03-24T17:14:30.997Z,5.57
2023-03-24T17:17:05.043Z,6.27
2023-03-24T17:19:33.380Z,6.53
2023-03-24T17:22:04.067Z,5.93
2023-03-24T17:24:35.905Z,6.20
2023-03-24T17:27:05.165Z,6.23
2023-03-24T17:29:36.805Z,6.40
2023-03-24T17:32:05.055Z,6.43
2023-03-24T17:34:33.370Z,5.57
2023-03-24T17:37:01.742Z,5.70
2023-03-24T17:39:29.997Z,5.97
2023-03-24T17:42:01.636Z,5.97
2023-03-24T17:44:30.173Z,6.10
2023-03-24T17:47:01.298Z,6.30
2023-03-24T17:49:30.310Z,6.60
2023-03-24T17:51:58.792Z,5.87
2023-03-24T17:54:28.369Z,6.20
2023-03-24T17:56:59.572Z,5.77
2023-03-24T17:59:28.543Z,5.57
2023-03-24T18:01:56.941Z,6.30
2023-03-24T18:04:33.023Z,6.43
2023-03-24T18:07:02.732Z,6.53
2023-03-24T18:09:33.754Z,6.27
2023-03-24T18:12:02.125Z,6.47
2023-03-24T18:14:33.439Z,6.80
2023-03-24T18:17:01.862Z,6.43
2023-03-24T18:19:31.903Z,6.93
2023-03-24T18:22:00.353Z,6.97
2023-03-24T18:24:33.198Z,6.97
2023-03-24T18:30:40.211Z,6.50
2023-03-24T18:34:18.972Z,7.47
2023-03-24T18:37:16.045Z,7.93
2023-03-24T18:40:02.572Z,7.27
2023-03-24T18:42:45.552Z,6.17
2023-03-24T18:45:36.363Z,7.50
2023-03-24T18:48:23.332Z,7.77
2023-03-24T18:51:12.657Z,6.70
2023-03-24T18:54:11.853Z,7.70
2023-03-24T18:56:49.799Z,8.37
2023-03-24T19:00:03.933Z,6.43
2023-03-24T19:06:29.050Z,7.73
2023-03-24T19:13:15.846Z,8.10
2023-03-24T19:16:39.406Z,7.43
2023-03-24T19:20:17.443Z,7.03
2023-03-24T19:22:43.740Z,7.33
2023-03-24T19:26:10.458Z,7.83
2023-03-24T19:29:04.150Z,7.27
2023-03-24T19:32:10.262Z,6.53
2023-03-24T19:35:12.389Z,6.70
2023-03-24T19:38:55.935Z,7.33
2023-03-24T19:41:57.393Z,7.77
2023-03-24T19:45:04.496Z,6.87
2023-03-24T19:47:51.733Z,6.83
2023-03-24T19:50:34.637Z,7.73
2023-03-24T19:53:17.864Z,7.23
2023-03-24T19:55:57.354Z,5.83
2023-03-24T19:59:20.616Z,6.40
2023-03-24T20:02:04.479Z,6.50
2023-03-24T20:05:07.170Z,6.90
2023-03-24T20:08:11.369Z,6.67
2023-03-24T20:11:04.714Z,7.30
2023-03-24T20:14:37.468Z,6.87
2023-03-24T20:17:22.305Z,6.40
2023-03-24T20:19:57.654Z,6.77
2023-03-24T20:22:39.704Z,6.57
2023-03-24T20:25:14.039Z,6.77
2023-03-24T20:28:11.566Z,6.37
2023-03-24T20:31:01.357Z,6.30
2023-03-24T20:33:45.113Z,6.53
2023-03-24T20:36:29.519Z,7.50
2023-03-24T20:39:07.658Z,6.57
2023-03-24T20:41:36.443Z,6.57
2023-03-24T20:44:16.438Z,6.00
2023-03-24T20:47:08.174Z,6.27
2023-03-24T20:49:47.742Z,6.80
2023-03-24T20:52:51.809Z,5.77
2023-03-24T20:55:26.144Z,7.17
2023-03-24T20:58:08.593Z,6.27
2023-03-24T21:00:43.295Z,5.90
2023-03-24T21:03:16.509Z,6.27
2023-03-24T21:06:08.102Z,6.57
2023-03-24T21:08:49.887Z,6.60
2023-03-24T21:11:28.979Z,6.27
2023-03-24T21:14:11.143Z,6.17
2023-03-24T21:17:02.870Z,6.17
2023-03-24T21:19:33.040Z,6.33
2023-03-24T21:22:15.515Z,5.90
2023-03-24T21:25:02.190Z,5.77
2023-03-24T21:27:58.375Z,6.50
2023-03-24T21:30:44.834Z,5.93
2023-03-24T21:33:33.369Z,5.73
2023-03-24T21:36:08.414Z,6.07
2023-03-24T21:38:53.722Z,6.03
2023-03-24T21:41:33.262Z,6.63
2023-03-24T21:44:04.832Z,6.53
2023-03-24T21:46:35.288Z,6.17
2023-03-24T21:49:18.228Z,6.27
2023-03-24T21:51:57.739Z,6.80
2023-03-24T21:55:06.344Z,6.77
2023-03-24T21:58:17.919Z,6.27
2023-03-24T22:04:10.864Z,6.70
2023-03-24T22:06:49.741Z,7.40
2023-03-24T22:09:41.868Z,6.37
2023-03-24T22:12:39.383Z,6.90
2023-03-24T22:15:10.906Z,7.67
2023-03-24T22:17:40.117Z,6.13
2023-03-24T22:20:09.897Z,7.70
2023-03-24T22:22:38.546Z,6.60
2023-03-24T22:25:09.623Z,6.93
2023-03-24T22:27:38.415Z,6.77
2023-03-24T22:30:10.138Z,6.70
2023-03-24T22:32:39.005Z,7.07
2023-03-24T22:35:08.935Z,6.97
2023-03-24T22:37:37.152Z,6.93
2023-03-24T22:40:06.921Z,6.63
2023-03-24T22:42:35.552Z,7.37
2023-03-24T22:45:03.723Z,6.13
2023-03-24T22:47:33.486Z,6.43
2023-03-24T22:50:01.779Z,6.87
2023-03-24T22:52:29.957Z,6.93
2023-03-24T22:55:01.427Z,7.37
2023-03-24T22:57:29.655Z,7.10
2023-03-24T23:00:02.008Z,6.97
2023-03-24T23:02:31.118Z,7.50
2023-03-24T23:05:01.003Z,7.27
2023-03-24T23:07:29.745Z,7.73
2023-03-24T23:10:00.477Z,7.27
2023-03-24T23:12:29.272Z,7.77
2023-03-24T23:14:57.627Z,6.43
2023-03-24T23:17:29.158Z,6.60
2023-03-24T23:19:57.775Z,7.80
2023-03-24T23:22:27.928Z,6.73
2023-03-24T23:25:01.910Z,6.93
2023-03-24T23:27:35.120Z,7.33
2023-03-24T23:30:03.329Z,7.80
2023-03-24T23:32:34.243Z,7.13
2023-03-24T23:35:03.716Z,7.23
2023-03-24T23:37:34.251Z,8.70
2023-03-24T23:40:09.633Z,9.10
2023-03-24T23:42:38.399Z,7.40
2023-03-24T23:45:08.064Z,7.73
2023-03-24T23:47:37.595Z,7.03
2023-03-24T23:50:07.415Z,6.87
2023-03-24T23:52:37.465Z,6.70
2023-03-24T23:55:06.388Z,7.50
2023-03-24T23:57:34.535Z,6.57
